createdAt,value
2017-04-16T00:00:52.540Z,3.02
2017-04-16T00:01:56.523Z,3.75
2017-04-16T00:03:00.791Z,3.33
2017-04-16T00:04:04.521Z,3.25
2017-04-16T00:05:08.832Z,3.38
2017-04-16T00:06:12.633Z,3.40
2017-04-16T00:07:16.668Z,3.03
2017-04-16T00:08:21.713Z,2.80
2017-04-16T00:09:25.797Z,3.40
2017-04-16T00:10:30.047Z,3.38
2017-04-16T00:11:34.319Z,2.95
2017-04-16T00:12:37.976Z,3.60
2017-04-16T00:13:41.787Z,4.05
2017-04-16T00:14:45.922Z,3.00
2017-04-16T00:15:49.739Z,3.93
2017-04-16T00:16:53.599Z,3.40
2017-04-16T00:17:57.210Z,3.42
2017-04-16T00:19:01.002Z,3.62
2017-04-16T00:20:04.548Z,3.66
2017-04-16T00:21:08.416Z,3.40
2017-04-16T00:22:12.532Z,3.45
2017-04-16T00:23:16.328Z,3.16
2017-04-16T00:24:20.938Z,3.68
2017-04-16T00:25:24.756Z,3.36
2017-04-16T00:26:29.099Z,3.53
2017-04-16T00:27:33.073Z,3.97
2017-04-16T00:28:36.902Z,3.70
2017-04-16T00:29:41.086Z,3.20
2017-04-16T00:30:44.626Z,3.57
2017-04-16T00:31:48.348Z,4.32
2017-04-16T00:32:52.442Z,3.33
2017-04-16T00:33:56.218Z,2.85
2017-04-16T00:35:00.113Z,3.53
2017-04-16T00:36:03.889Z,3.30
2017-04-16T00:37:08.051Z,3.10
2017-04-16T00:38:12.965Z,3.82
2017-04-16T00:39:16.809Z,3.33
2017-04-16T00:40:21.620Z,3.12
2017-04-16T00:41:25.711Z,3.60
2017-04-16T00:42:30.745Z,3.25
2017-04-16T00:43:36.187Z,3.07
2017-04-16T00:44:39.548Z,3.13
2017-04-16T00:45:44.459Z,3.22
2017-04-16T00:46:48.353Z,3.55
2017-04-16T00:47:53.121Z,3.53
2017-04-16T00:48:57.038Z,3.35
2017-04-16T00:50:00.987Z,3.60
2017-04-16T00:51:04.595Z,4.13
2017-04-16T00:52:08.575Z,3.83
2017-04-16T00:53:12.568Z,3.78
2017-04-16T00:54:17.915Z,4.27
2017-04-16T00:55:21.460Z,3.90
2017-04-16T00:56:25.392Z,3.95
2017-04-16T00:57:29.452Z,3.93
2017-04-16T00:58:33.183Z,4.45
2017-04-16T00:59:37.314Z,3.23
2017-04-16T01:02:49.038Z,3.57
2017-04-16T01:03:52.969Z,3.33
2017-04-16T01:04:56.764Z,3.97
2017-04-16T01:06:00.992Z,3.40
2017-04-16T01:07:05.402Z,3.43
2017-04-16T01:08:10.089Z,3.22
2017-04-16T01:09:14.021Z,3.20
2017-04-16T01:10:18.122Z,3.80
2017-04-16T01:11:21.829Z,3.75
2017-04-16T01:12:25.600Z,3.87
2017-04-16T01:13:29.705Z,3.65
2017-04-16T01:14:34.799Z,3.30
2017-04-16T01:15:38.726Z,3.92
2017-04-16T01:16:42.490Z,2.70
2017-04-16T01:17:46.602Z,3.53
2017-04-16T01:18:50.443Z,3.47
2017-04-16T01:19:55.070Z,4.00
2017-04-16T01:20:59.286Z,3.32
2017-04-16T01:22:03.157Z,3.17
2017-04-16T01:23:07.062Z,2.80
2017-04-16T01:24:11.999Z,3.40
2017-04-16T01:25:16.593Z,3.53
2017-04-16T01:26:20.801Z,3.00
2017-04-16T01:27:24.418Z,3.33
2017-04-16T01:28:28.010Z,3.88
2017-04-16T01:29:31.294Z,3.05
2017-04-16T01:30:34.786Z,3.30
2017-04-16T01:31:38.886Z,2.92
2017-04-16T01:32:42.595Z,2.77
2017-04-16T01:33:46.472Z,2.95
2017-04-16T01:34:50.335Z,3.00
2017-04-16T01:35:54.352Z,3.72
2017-04-16T01:36:58.360Z,3.43
2017-04-16T01:38:02.269Z,3.20
2017-04-16T01:39:06.690Z,3.30
2017-04-16T01:40:10.495Z,2.90
2017-04-16T01:41:14.360Z,3.82
2017-04-16T01:42:19.284Z,3.40
2017-04-16T01:43:23.977Z,3.90
2017-04-16T01:44:29.037Z,4.02
2017-04-16T01:45:33.107Z,3.47
2017-04-16T01:46:37.173Z,3.78
2017-04-16T01:47:41.345Z,3.90
2017-04-16T01:48:45.132Z,3.48
2017-04-16T01:49:48.968Z,3.78
2017-04-16T01:50:52.723Z,3.23
2017-04-16T01:51:56.966Z,3.27
2017-04-16T01:53:01.039Z,3.65
2017-04-16T01:54:05.716Z,3.50
2017-04-16T01:55:09.491Z,3.28
2017-04-16T01:56:13.068Z,3.67
2017-04-16T01:57:16.677Z,3.68
2017-04-16T01:58:20.978Z,3.23
2017-04-16T01:59:24.949Z,3.67
2017-04-16T02:00:28.903Z,3.13
2017-04-16T02:01:33.373Z,3.13
2017-04-16T02:02:37.448Z,3.37
2017-04-16T02:03:41.514Z,3.38
2017-04-16T02:04:45.173Z,3.45
2017-04-16T02:05:49.737Z,3.57
2017-04-16T02:06:53.599Z,3.45
2017-04-16T02:07:57.898Z,2.70
2017-04-16T02:09:02.051Z,2.88
2017-04-16T02:10:06.169Z,3.30
2017-04-16T02:11:11.220Z,2.82
2017-04-16T02:12:15.666Z,2.83
2017-04-16T02:13:19.395Z,3.47
2017-04-16T02:14:23.409Z,3.32
2017-04-16T02:15:27.699Z,3.33
2017-04-16T02:16:31.661Z,3.23
2017-04-16T02:17:35.275Z,3.23
2017-04-16T02:18:39.685Z,3.93
2017-04-16T02:19:43.479Z,2.87
2017-04-16T02:20:47.742Z,3.98
2017-04-16T02:21:51.662Z,3.62
2017-04-16T02:22:55.539Z,3.40
2017-04-16T02:23:59.478Z,2.82
2017-04-16T02:25:04.446Z,3.00
2017-04-16T02:26:08.234Z,3.67
2017-04-16T02:27:12.129Z,3.62
2017-04-16T02:28:16.082Z,3.17
2017-04-16T02:29:19.569Z,2.98
2017-04-16T02:30:23.214Z,3.53
2017-04-16T02:31:27.248Z,3.10
2017-04-16T02:32:31.548Z,3.85
2017-04-16T02:33:35.550Z,3.07
2017-04-16T02:34:39.388Z,2.82
2017-04-16T02:35:43.558Z,2.65
2017-04-16T02:36:47.554Z,3.43
2017-04-16T02:37:51.375Z,3.27
2017-04-16T02:38:55.448Z,3.35
2017-04-16T02:39:59.334Z,3.12
2017-04-16T02:41:03.123Z,3.50
2017-04-16T02:42:07.987Z,3.10
2017-04-16T02:43:11.921Z,4.03
2017-04-16T02:44:16.073Z,3.62
2017-04-16T02:45:21.781Z,2.87
2017-04-16T02:46:25.797Z,3.23
2017-04-16T02:47:30.030Z,3.67
2017-04-16T02:48:33.870Z,3.43
2017-04-16T02:49:37.677Z,5.98
2017-04-16T02:50:41.562Z,9.10
2017-04-16T02:51:45.819Z,7.88
2017-04-16T02:52:49.866Z,10.82
2017-04-16T02:53:53.557Z,7.43
2017-04-16T02:54:57.491Z,9.35
2017-04-16T02:56:01.337Z,6.98
2017-04-16T02:57:04.897Z,6.62
2017-04-16T02:58:08.771Z,5.88
2017-04-16T02:59:12.999Z,7.47
2017-04-16T03:00:17.364Z,12.08
2017-04-16T03:01:21.928Z,11.82
2017-04-16T03:02:25.916Z,29.70
2017-04-16T03:03:29.850Z,20.98
2017-04-16T03:04:34.050Z,43.33
2017-04-16T03:05:38.162Z,44.12
2017-04-16T03:06:42.086Z,35.62
2017-04-16T03:07:46.022Z,22.73
2017-04-16T03:08:50.157Z,17.93
2017-04-16T03:09:54.069Z,20.35
2017-04-16T03:10:57.679Z,11.98
2017-04-16T03:12:01.597Z,8.80
2017-04-16T03:13:05.858Z,8.65
2017-04-16T03:14:09.584Z,5.57
2017-04-16T03:15:13.341Z,5.83
2017-04-16T03:16:17.393Z,5.65
2017-04-16T03:17:21.597Z,6.57
2017-04-16T03:18:25.741Z,6.25
2017-04-16T03:19:29.842Z,8.18
2017-04-16T03:20:34.001Z,8.47
2017-04-16T03:21:37.841Z,8.60
2017-04-16T03:22:41.583Z,9.00
2017-04-16T03:23:45.519Z,8.00
2017-04-16T03:24:49.468Z,8.60
2017-04-16T03:25:53.279Z,10.85
2017-04-16T03:26:57.540Z,10.82
2017-04-16T03:28:01.376Z,9.73
2017-04-16T03:29:05.385Z,9.50
2017-04-16T03:30:09.741Z,9.00
2017-04-16T03:31:13.600Z,7.65
2017-04-16T03:32:17.369Z,5.42
2017-04-16T03:33:21.896Z,5.52
2017-04-16T03:34:26.052Z,5.52
2017-04-16T03:35:29.405Z,6.22
2017-04-16T03:36:33.420Z,5.48
2017-04-16T03:37:37.265Z,6.60
2017-04-16T03:38:41.522Z,7.30
2017-04-16T03:39:45.748Z,10.65
2017-04-16T03:40:49.888Z,9.25
2017-04-16T03:41:54.769Z,9.68
2017-04-16T03:42:58.096Z,9.95
2017-04-16T03:44:01.275Z,8.85
2017-04-16T03:45:05.480Z,8.80
2017-04-16T03:46:09.962Z,8.35
2017-04-16T03:47:13.619Z,8.60
2017-04-16T03:48:17.406Z,9.48
2017-04-16T03:49:21.232Z,10.28
2017-04-16T03:50:24.881Z,10.38
2017-04-16T03:51:30.131Z,10.82
2017-04-16T03:52:33.774Z,10.40
2017-04-16T03:53:37.959Z,9.65
2017-04-16T03:54:41.943Z,14.98
2017-04-16T03:55:45.844Z,10.05
2017-04-16T03:56:49.953Z,9.25
2017-04-16T03:57:53.960Z,8.97
2017-04-16T03:58:57.974Z,9.67
2017-04-16T04:00:02.099Z,8.68
2017-04-16T04:01:06.026Z,8.57
2017-04-16T04:02:09.841Z,8.63
2017-04-16T04:03:13.698Z,7.57
2017-04-16T04:04:17.356Z,6.70
2017-04-16T04:05:21.113Z,6.87
2017-04-16T04:06:25.336Z,6.93
2017-04-16T04:07:29.315Z,7.52
2017-04-16T04:08:33.101Z,6.85
2017-04-16T04:09:36.848Z,6.98
2017-04-16T04:10:40.998Z,7.57
2017-04-16T04:11:45.047Z,10.40
2017-04-16T04:12:48.621Z,8.62
2017-04-16T04:13:52.152Z,10.13
2017-04-16T04:14:55.378Z,7.88
2017-04-16T04:15:59.176Z,12.62
2017-04-16T04:17:03.195Z,8.40
2017-04-16T04:18:06.966Z,12.57
2017-04-16T04:19:10.623Z,11.35
2017-04-16T04:20:14.079Z,15.08
2017-04-16T04:21:18.722Z,14.87
2017-04-16T04:22:23.034Z,14.25
2017-04-16T04:23:27.132Z,14.08
2017-04-16T04:24:31.394Z,15.43
2017-04-16T04:25:35.249Z,15.83
2017-04-16T04:26:39.240Z,17.58
2017-04-16T04:27:42.927Z,16.52
2017-04-16T04:28:46.507Z,20.65
2017-04-16T04:29:50.278Z,19.32
2017-04-16T04:30:54.204Z,16.33
2017-04-16T04:31:57.864Z,12.12
2017-04-16T04:33:02.702Z,8.38
2017-04-16T04:34:06.155Z,9.28
2017-04-16T04:35:10.077Z,7.22
2017-04-16T04:36:13.734Z,7.62
2017-04-16T04:37:17.757Z,7.75
2017-04-16T04:38:22.515Z,7.47
2017-04-16T04:39:26.329Z,7.95
2017-04-16T04:40:29.776Z,8.10
2017-04-16T04:41:33.714Z,7.90
2017-04-16T04:42:38.177Z,9.27
2017-04-16T04:43:42.214Z,8.28
2017-04-16T04:44:46.470Z,10.35
2017-04-16T04:45:51.240Z,10.40
2017-04-16T04:46:56.323Z,12.48
2017-04-16T04:48:01.112Z,10.13
2017-04-16T04:49:05.278Z,11.55
2017-04-16T04:50:09.113Z,10.63
2017-04-16T04:51:13.611Z,8.85
2017-04-16T04:52:17.529Z,7.67
2017-04-16T04:53:21.627Z,7.67
2017-04-16T04:54:25.586Z,7.77
2017-04-16T04:55:29.357Z,8.60
2017-04-16T04:56:33.107Z,7.87
2017-04-16T04:57:36.933Z,8.75
2017-04-16T04:58:41.778Z,9.75
2017-04-16T04:59:45.771Z,8.00
2017-04-16T05:00:49.568Z,9.92
2017-04-16T05:01:53.408Z,8.65
2017-04-16T05:02:57.426Z,9.52
2017-04-16T05:04:02.186Z,8.48
2017-04-16T05:05:05.734Z,8.15
2017-04-16T05:06:09.632Z,7.88
2017-04-16T05:07:13.439Z,8.15
2017-04-16T05:08:17.404Z,10.57
2017-04-16T05:09:21.294Z,12.32
2017-04-16T05:10:24.992Z,10.00
2017-04-16T05:11:34.288Z,10.35
2017-04-16T05:12:38.188Z,11.77
2017-04-16T05:13:41.917Z,9.22
2017-04-16T05:14:45.723Z,8.90
2017-04-16T05:15:49.619Z,8.63
2017-04-16T05:16:54.318Z,8.30
2017-04-16T05:17:58.092Z,9.07
2017-04-16T05:19:01.686Z,9.37
2017-04-16T05:20:05.782Z,9.63
2017-04-16T05:21:10.834Z,9.60
2017-04-16T05:22:14.519Z,8.53
2017-04-16T05:23:18.250Z,8.80
2017-04-16T05:24:22.760Z,8.23
2017-04-16T05:25:26.575Z,7.92
2017-04-16T05:26:31.374Z,8.67
2017-04-16T05:27:34.993Z,7.50
2017-04-16T05:28:38.537Z,9.33
2017-04-16T05:29:42.500Z,9.58
2017-04-16T05:30:47.137Z,7.90
2017-04-16T05:31:51.145Z,10.38
2017-04-16T05:32:55.038Z,15.13
2017-04-16T05:33:59.053Z,14.37
2017-04-16T05:35:02.639Z,22.65
2017-04-16T05:36:06.963Z,29.97
2017-04-16T05:37:10.998Z,21.00
2017-04-16T05:38:14.722Z,24.40
2017-04-16T05:39:18.962Z,27.87
2017-04-16T05:40:23.757Z,20.77
2017-04-16T05:41:27.918Z,15.95
2017-04-16T05:42:32.431Z,20.28
2017-04-16T05:43:36.650Z,20.00
2017-04-16T05:44:41.464Z,16.38
2017-04-16T05:45:44.941Z,16.30
2017-04-16T05:46:48.674Z,14.82
2017-04-16T05:47:54.343Z,13.45
2017-04-16T05:48:58.120Z,14.67
2017-04-16T05:50:01.738Z,15.22
2017-04-16T05:51:05.501Z,15.10
2017-04-16T05:52:09.661Z,13.48
2017-04-16T05:53:13.893Z,13.08
2017-04-16T05:54:17.621Z,12.53
2017-04-16T05:55:21.482Z,12.33
2017-04-16T05:56:25.079Z,14.23
2017-04-16T05:57:29.024Z,12.32
2017-04-16T05:58:33.058Z,14.03
2017-04-16T05:59:36.684Z,13.40
2017-04-16T06:00:40.775Z,13.70
2017-04-16T06:01:44.723Z,12.57
2017-04-16T06:02:48.533Z,12.73
2017-04-16T06:03:52.372Z,12.73
2017-04-16T06:04:57.716Z,11.83
2017-04-16T06:06:01.422Z,13.57
2017-04-16T06:07:05.219Z,12.88
2017-04-16T06:08:09.088Z,12.67
2017-04-16T06:09:13.606Z,13.33
2017-04-16T06:10:17.452Z,13.75
2017-04-16T06:11:21.108Z,13.32
2017-04-16T06:12:25.495Z,11.97
2017-04-16T06:13:31.627Z,12.27
2017-04-16T06:14:35.464Z,11.82
2017-04-16T06:15:39.283Z,13.10
2017-04-16T06:16:43.396Z,12.43
2017-04-16T06:17:47.440Z,12.93
2017-04-16T06:18:52.061Z,11.15
2017-04-16T06:19:56.774Z,12.65
2017-04-16T06:21:00.944Z,13.50
2017-04-16T06:22:04.880Z,13.65
2017-04-16T06:23:08.581Z,12.70
2017-04-16T06:24:12.580Z,12.25
2017-04-16T06:25:16.737Z,14.22
2017-04-16T06:26:20.701Z,12.10
2017-04-16T06:27:24.758Z,12.83
2017-04-16T06:28:28.788Z,12.15
2017-04-16T06:29:32.404Z,11.98
2017-04-16T06:30:36.243Z,12.92
2017-04-16T06:31:39.894Z,12.15
2017-04-16T06:32:43.982Z,12.98
2017-04-16T06:33:47.541Z,13.15
2017-04-16T06:34:51.446Z,14.07
2017-04-16T06:35:56.024Z,12.82
2017-04-16T06:36:59.777Z,12.88
2017-04-16T06:38:03.565Z,14.37
2017-04-16T06:39:07.947Z,13.93
2017-04-16T06:40:11.888Z,13.48
2017-04-16T06:41:15.546Z,12.55
2017-04-16T06:42:19.683Z,13.68
2017-04-16T06:43:23.556Z,12.90
2017-04-16T06:44:27.763Z,12.15
2017-04-16T06:45:31.625Z,13.75
2017-04-16T06:46:35.562Z,13.72
2017-04-16T06:47:40.585Z,12.52
2017-04-16T06:48:45.320Z,12.82
2017-04-16T06:49:49.153Z,12.77
2017-04-16T06:50:53.135Z,10.72
2017-04-16T06:51:56.861Z,13.92
2017-04-16T06:53:00.970Z,12.57
2017-04-16T06:54:05.549Z,9.65
2017-04-16T06:55:09.300Z,13.43
2017-04-16T06:56:13.014Z,12.58
2017-04-16T06:57:16.692Z,11.50
2017-04-16T06:58:20.633Z,13.32
2017-04-16T06:59:24.468Z,11.57
2017-04-16T07:00:28.463Z,11.03
2017-04-16T07:01:32.268Z,5.85
2017-04-16T07:02:36.203Z,8.63
2017-04-16T07:03:43.558Z,4.63
2017-04-16T07:04:47.557Z,7.10
2017-04-16T07:05:51.363Z,5.85
2017-04-16T07:06:55.447Z,5.95
2017-04-16T07:08:00.132Z,5.50
2017-04-16T07:09:03.889Z,5.55
2017-04-16T07:10:08.741Z,6.10
2017-04-16T07:11:12.380Z,4.52
2017-04-16T07:12:16.230Z,6.53
2017-04-16T07:13:20.213Z,6.45
2017-04-16T07:14:23.882Z,4.75
2017-04-16T07:15:27.746Z,4.60
2017-04-16T07:16:32.537Z,4.87
2017-04-16T07:17:36.720Z,4.67
2017-04-16T07:18:40.732Z,6.20
2017-04-16T07:19:44.676Z,5.42
2017-04-16T07:20:48.607Z,5.77
2017-04-16T07:21:52.169Z,6.15
2017-04-16T07:22:56.051Z,5.35
2017-04-16T07:23:59.541Z,4.77
2017-04-16T07:25:03.356Z,6.92
2017-04-16T07:26:06.754Z,8.07
2017-04-16T07:27:10.913Z,8.27
2017-04-16T07:28:14.855Z,8.95
2017-04-16T07:29:18.389Z,8.73
2017-04-16T07:30:22.254Z,8.93
2017-04-16T07:31:26.139Z,11.68
2017-04-16T07:32:30.906Z,9.57
2017-04-16T07:33:35.028Z,13.17
2017-04-16T07:34:38.724Z,12.12
2017-04-16T07:35:42.605Z,13.80
2017-04-16T07:36:46.580Z,13.73
2017-04-16T07:37:50.207Z,15.03
2017-04-16T07:38:54.117Z,13.47
2017-04-16T07:39:57.950Z,10.88
2017-04-16T07:41:01.557Z,11.63
2017-04-16T07:42:05.585Z,10.50
2017-04-16T07:43:09.245Z,9.92
2017-04-16T07:44:13.089Z,9.83
2017-04-16T07:45:17.463Z,8.93
2017-04-16T07:46:21.133Z,9.15
2017-04-16T07:47:24.687Z,8.05
2017-04-16T07:48:30.377Z,8.37
2017-04-16T07:49:34.443Z,7.40
2017-04-16T07:50:38.520Z,7.82
2017-04-16T07:51:42.294Z,7.17
2017-04-16T07:52:45.977Z,7.20
2017-04-16T07:53:49.831Z,7.45
2017-04-16T07:54:53.706Z,7.40
2017-04-16T07:55:57.859Z,6.33
2017-04-16T07:57:01.777Z,7.23
2017-04-16T07:58:05.808Z,6.67
2017-04-16T07:59:09.550Z,7.30
2017-04-16T08:00:13.391Z,7.75
2017-04-16T08:01:17.244Z,7.43
2017-04-16T08:02:21.254Z,7.97
2017-04-16T08:03:25.059Z,8.83
2017-04-16T08:04:31.268Z,8.33
2017-04-16T08:05:39.482Z,8.37
2017-04-16T08:06:43.441Z,9.18
2017-04-16T08:07:47.583Z,9.67
2017-04-16T08:08:51.784Z,8.35
2017-04-16T08:09:55.453Z,11.22
2017-04-16T08:11:00.614Z,9.50
2017-04-16T08:12:05.371Z,9.12
2017-04-16T08:13:09.360Z,9.78
2017-04-16T08:14:13.129Z,7.63
2017-04-16T08:15:17.127Z,9.37
2017-04-16T08:16:20.669Z,8.75
2017-04-16T08:17:24.497Z,8.42
2017-04-16T08:18:28.168Z,9.25
2017-04-16T08:19:31.792Z,9.23
2017-04-16T08:20:36.235Z,8.88
2017-04-16T08:21:39.852Z,8.98
2017-04-16T08:22:43.947Z,9.90
2017-04-16T08:23:48.003Z,13.53
2017-04-16T08:24:51.822Z,9.50
2017-04-16T08:25:55.721Z,8.52
2017-04-16T08:26:59.462Z,9.12
2017-04-16T08:28:03.712Z,9.37
2017-04-16T08:29:07.175Z,10.37
2017-04-16T08:30:12.369Z,9.65
2017-04-16T08:31:16.162Z,8.70
2017-04-16T08:32:19.566Z,9.35
2017-04-16T08:33:23.207Z,9.67
2017-04-16T08:34:27.201Z,7.95
2017-04-16T08:35:31.158Z,9.97
2017-04-16T08:36:34.692Z,7.87
2017-04-16T08:37:38.550Z,8.67
2017-04-16T08:38:42.418Z,8.27
2017-04-16T08:39:46.168Z,9.10
2017-04-16T08:40:50.933Z,8.90
2017-04-16T08:41:54.779Z,9.65
2017-04-16T08:42:58.406Z,8.18
2017-04-16T08:44:02.464Z,7.47
2017-04-16T08:45:06.069Z,8.87
2017-04-16T08:46:09.227Z,7.15
2017-04-16T08:47:12.986Z,8.40
2017-04-16T08:48:16.667Z,7.90
2017-04-16T08:49:21.656Z,7.37
2017-04-16T08:50:25.448Z,6.72
2017-04-16T08:51:29.274Z,7.98
2017-04-16T08:52:32.953Z,7.17
2017-04-16T08:53:36.662Z,6.88
2017-04-16T08:54:39.810Z,6.38
2017-04-16T08:55:43.608Z,6.72
2017-04-16T08:56:47.444Z,6.92
2017-04-16T08:57:51.538Z,6.92
2017-04-16T08:58:55.045Z,6.75
2017-04-16T08:59:59.016Z,6.57
2017-04-16T09:01:02.788Z,8.13
2017-04-16T09:02:06.426Z,7.58
2017-04-16T09:03:10.321Z,7.63
2017-04-16T09:04:14.146Z,6.95
2017-04-16T09:05:17.910Z,6.98
2017-04-16T09:06:21.426Z,7.30
2017-04-16T09:07:25.461Z,7.52
2017-04-16T09:08:29.466Z,6.80
2017-04-16T09:09:33.602Z,6.75
2017-04-16T09:10:37.394Z,7.22
2017-04-16T09:11:41.047Z,7.60
2017-04-16T09:12:44.810Z,7.53
2017-04-16T09:13:48.401Z,7.43
2017-04-16T09:14:51.498Z,6.92
2017-04-16T09:15:54.641Z,7.37
2017-04-16T09:16:58.566Z,6.18
2017-04-16T09:18:01.792Z,6.17
2017-04-16T09:19:05.408Z,6.75
2017-04-16T09:20:09.230Z,7.28
2017-04-16T09:21:13.069Z,7.60
2017-04-16T09:22:16.678Z,6.80
2017-04-16T09:23:20.813Z,6.98
2017-04-16T09:24:24.333Z,6.12
2017-04-16T09:25:28.211Z,6.93
2017-04-16T09:26:31.852Z,6.05
2017-04-16T09:27:36.688Z,7.40
2017-04-16T09:28:41.409Z,7.67
2017-04-16T09:29:45.270Z,6.23
2017-04-16T09:30:48.955Z,6.33
2017-04-16T09:31:52.896Z,8.15
2017-04-16T09:32:57.693Z,7.33
2017-04-16T09:34:01.505Z,6.53
2017-04-16T09:35:05.399Z,7.50
2017-04-16T09:36:09.167Z,7.08
2017-04-16T09:37:12.832Z,7.45
2017-04-16T09:38:16.942Z,7.35
2017-04-16T09:39:20.651Z,6.78
2017-04-16T09:40:24.647Z,7.27
2017-04-16T09:41:28.214Z,6.83
2017-04-16T09:42:32.127Z,7.90
2017-04-16T09:43:35.955Z,7.88
2017-04-16T09:44:41.440Z,6.80
2017-04-16T09:45:45.017Z,7.85
2017-04-16T09:46:51.882Z,6.43
2017-04-16T09:47:55.854Z,7.23
2017-04-16T09:48:59.526Z,7.23
2017-04-16T09:50:04.053Z,7.65
2017-04-16T09:51:07.883Z,7.02
2017-04-16T09:52:11.883Z,7.40
2017-04-16T09:53:15.772Z,7.10
2017-04-16T09:54:19.517Z,6.57
2017-04-16T09:55:23.174Z,7.22
2017-04-16T09:56:27.039Z,6.58
2017-04-16T09:57:30.822Z,6.80
2017-04-16T09:58:35.392Z,6.68
2017-04-16T09:59:39.549Z,6.55
2017-04-16T10:00:43.547Z,6.92
2017-04-16T10:01:47.289Z,7.45
2017-04-16T10:02:51.116Z,7.83
2017-04-16T10:03:54.916Z,7.02
2017-04-16T10:04:58.728Z,7.20
2017-04-16T10:06:03.560Z,7.88
2017-04-16T10:07:07.750Z,7.28
2017-04-16T10:08:12.513Z,7.53
2017-04-16T10:09:16.573Z,7.12
2017-04-16T10:10:20.477Z,7.27
2017-04-16T10:11:24.309Z,7.37
2017-04-16T10:12:28.021Z,8.03
2017-04-16T10:13:31.749Z,7.53
2017-04-16T10:14:35.182Z,7.40
2017-04-16T10:15:39.035Z,7.12
2017-04-16T10:16:42.701Z,7.13
2017-04-16T10:17:46.599Z,7.35
2017-04-16T10:18:50.969Z,6.28
2017-04-16T10:19:54.978Z,6.73
2017-04-16T10:20:58.616Z,7.37
2017-04-16T10:22:02.591Z,7.12
2017-04-16T10:23:06.302Z,6.80
2017-04-16T10:24:10.007Z,7.32
2017-04-16T10:25:14.020Z,6.40
2017-04-16T10:26:17.716Z,7.47
2017-04-16T10:27:21.360Z,6.75
2017-04-16T10:28:25.131Z,7.23
2017-04-16T10:29:29.196Z,7.73
2017-04-16T10:30:33.080Z,6.35
2017-04-16T10:31:36.461Z,7.07
2017-04-16T10:32:39.972Z,8.40
2017-04-16T10:33:43.736Z,6.65
2017-04-16T10:34:47.557Z,6.48
2017-04-16T10:35:52.312Z,7.80
2017-04-16T10:36:56.263Z,6.42
2017-04-16T10:37:59.775Z,8.37
2017-04-16T10:39:04.496Z,8.58
2017-04-16T10:40:08.640Z,7.62
2017-04-16T10:41:12.397Z,8.15
2017-04-16T10:42:16.702Z,7.55
2017-04-16T10:43:21.400Z,9.80
2017-04-16T10:44:25.322Z,9.85
2017-04-16T10:45:29.157Z,11.10
2017-04-16T10:46:33.221Z,11.40
2017-04-16T10:47:37.295Z,11.73
2017-04-16T10:48:41.009Z,11.98
2017-04-16T10:49:45.203Z,10.28
2017-04-16T10:50:50.072Z,9.58
2017-04-16T10:51:54.300Z,11.07
2017-04-16T10:52:58.491Z,13.58
2017-04-16T10:54:02.308Z,12.72
2017-04-16T10:55:06.063Z,14.98
2017-04-16T10:56:09.828Z,13.75
2017-04-16T10:57:13.936Z,9.20
2017-04-16T10:58:17.461Z,12.85
2017-04-16T10:59:21.349Z,14.52
2017-04-16T11:00:25.306Z,16.43
2017-04-16T11:01:29.333Z,16.27
2017-04-16T11:02:33.838Z,11.62
2017-04-16T11:03:37.388Z,13.68
2017-04-16T11:04:41.169Z,15.40
2017-04-16T11:05:44.866Z,13.45
2017-04-16T11:06:48.716Z,14.70
2017-04-16T11:07:52.814Z,14.00
2017-04-16T11:08:56.760Z,15.27
2017-04-16T11:10:00.672Z,11.45
2017-04-16T11:11:04.553Z,12.43
2017-04-16T11:12:08.485Z,11.38
2017-04-16T11:13:12.539Z,11.77
2017-04-16T11:14:16.078Z,16.13
2017-04-16T11:15:19.977Z,18.67
2017-04-16T11:16:23.613Z,9.85
2017-04-16T11:17:27.680Z,10.85
2017-04-16T11:18:31.344Z,15.27
2017-04-16T11:19:34.986Z,14.60
2017-04-16T11:20:38.806Z,14.93
2017-04-16T11:21:42.353Z,15.17
2017-04-16T11:22:46.090Z,15.02
2017-04-16T11:23:50.308Z,15.08
2017-04-16T11:24:54.437Z,13.17
2017-04-16T11:25:58.328Z,12.80
2017-04-16T11:27:01.793Z,15.98
2017-04-16T11:28:05.703Z,15.78
2017-04-16T11:29:09.443Z,15.78
2017-04-16T11:30:13.343Z,13.55
2017-04-16T11:31:16.932Z,11.63
2017-04-16T11:32:20.512Z,13.48
2017-04-16T11:33:23.994Z,13.18
2017-04-16T11:34:27.929Z,12.40
2017-04-16T11:35:31.681Z,8.87
2017-04-16T11:36:35.543Z,11.55
2017-04-16T11:37:39.572Z,12.65
2017-04-16T11:38:43.508Z,10.50
2017-04-16T11:39:47.393Z,10.67
2017-04-16T11:40:51.198Z,9.27
2017-04-16T11:41:54.858Z,8.27
2017-04-16T11:42:58.699Z,8.32
2017-04-16T11:44:02.312Z,6.70
2017-04-16T11:45:06.309Z,10.13
2017-04-16T11:46:10.092Z,9.90
2017-04-16T11:47:13.952Z,7.70
2017-04-16T11:48:17.950Z,8.65
2017-04-16T11:49:21.670Z,8.83
2017-04-16T11:50:25.752Z,8.57
2017-04-16T11:51:30.962Z,9.42
2017-04-16T11:52:34.449Z,9.25
2017-04-16T11:53:37.902Z,7.17
2017-04-16T11:54:41.573Z,9.02
2017-04-16T11:55:45.326Z,7.65
2017-04-16T11:56:48.957Z,8.55
2017-04-16T11:57:52.344Z,8.43
2017-04-16T11:58:56.316Z,6.87
2017-04-16T11:59:59.913Z,8.60
2017-04-16T12:01:03.814Z,9.12
2017-04-16T12:02:07.825Z,8.32
2017-04-16T12:03:11.714Z,7.78
2017-04-16T12:04:15.474Z,8.37
2017-04-16T12:05:19.664Z,8.75
2017-04-16T12:06:23.433Z,8.08
2017-04-16T12:07:27.633Z,7.08
2017-04-16T12:08:31.606Z,8.05
2017-04-16T12:09:35.365Z,7.78
2017-04-16T12:10:38.957Z,7.77
2017-04-16T12:11:42.982Z,8.12
2017-04-16T12:12:47.050Z,8.28
2017-04-16T12:13:50.829Z,7.25
2017-04-16T12:14:54.620Z,6.80
2017-04-16T12:15:58.422Z,7.20
2017-04-16T12:17:02.379Z,7.68
2017-04-16T12:18:05.703Z,7.08
2017-04-16T12:19:10.090Z,6.40
2017-04-16T12:20:13.940Z,7.53
2017-04-16T12:22:31.309Z,7.35
2017-04-16T12:23:35.193Z,7.82
2017-04-16T12:24:38.883Z,7.90
2017-04-16T12:25:42.429Z,7.22
2017-04-16T12:26:46.029Z,7.93
2017-04-16T12:27:49.898Z,7.78
2017-04-16T12:28:54.081Z,7.35
2017-04-16T12:29:57.952Z,6.95
2017-04-16T12:31:01.629Z,7.80
2017-04-16T12:32:05.458Z,8.45
2017-04-16T12:33:09.394Z,7.70
2017-04-16T12:34:13.215Z,9.47
2017-04-16T12:35:17.176Z,7.92
2017-04-16T12:36:21.729Z,8.78
2017-04-16T12:37:24.962Z,6.43
2017-04-16T12:38:29.163Z,6.52
2017-04-16T12:39:32.707Z,8.20
2017-04-16T12:40:37.130Z,7.25
2017-04-16T12:41:41.288Z,7.77
2017-04-16T12:42:45.358Z,7.35
2017-04-16T12:43:49.462Z,7.40
2017-04-16T12:44:53.128Z,7.67
2017-04-16T12:45:57.043Z,8.10
2017-04-16T12:47:01.513Z,7.80
2017-04-16T12:48:05.644Z,7.82
2017-04-16T12:49:09.721Z,8.62
2017-04-16T12:50:13.528Z,7.68
2017-04-16T12:51:17.415Z,8.70
2017-04-16T12:52:22.491Z,7.00
2017-04-16T12:53:26.332Z,7.98
2017-04-16T12:54:29.807Z,7.48
2017-04-16T12:55:33.471Z,6.40
2017-04-16T12:56:37.370Z,7.37
2017-04-16T12:57:41.111Z,6.78
2017-04-16T12:58:44.722Z,7.18
2017-04-16T12:59:48.831Z,6.17
2017-04-16T13:00:52.693Z,7.27
2017-04-16T13:01:56.852Z,6.43
2017-04-16T13:03:00.733Z,6.50
2017-04-16T13:04:04.706Z,7.23
2017-04-16T13:05:08.832Z,6.60
2017-04-16T13:06:12.322Z,6.48
2017-04-16T13:07:16.205Z,7.10
2017-04-16T13:08:20.010Z,6.18
2017-04-16T13:09:24.109Z,6.08
2017-04-16T13:10:28.102Z,6.77
2017-04-16T13:11:32.103Z,5.95
2017-04-16T13:12:35.894Z,8.12
2017-04-16T13:13:39.983Z,5.65
2017-04-16T13:14:44.718Z,6.30
2017-04-16T13:15:48.961Z,6.25
2017-04-16T13:16:52.828Z,7.00
2017-04-16T13:17:56.729Z,6.07
2017-04-16T13:19:00.508Z,5.93
2017-04-16T13:20:04.196Z,6.95
2017-04-16T13:21:08.014Z,5.18
2017-04-16T13:22:11.662Z,5.78
2017-04-16T13:23:15.282Z,6.32
2017-04-16T13:24:18.952Z,6.12
2017-04-16T13:25:22.784Z,7.37
2017-04-16T13:26:26.751Z,6.27
2017-04-16T13:27:30.641Z,3.95
2017-04-16T13:28:33.896Z,4.07
2017-04-16T13:29:37.752Z,5.72
2017-04-16T13:30:41.400Z,5.00
2017-04-16T13:31:46.247Z,5.22
2017-04-16T13:32:50.950Z,5.17
2017-04-16T13:33:55.712Z,5.75
2017-04-16T13:34:59.432Z,3.38
2017-04-16T13:36:03.249Z,4.45
2017-04-16T13:37:07.110Z,3.70
2017-04-16T13:38:11.151Z,3.92
2017-04-16T13:39:14.977Z,4.48
2017-04-16T13:40:18.581Z,4.15
2017-04-16T13:41:22.568Z,4.92
2017-04-16T13:42:26.273Z,4.93
2017-04-16T13:43:30.163Z,4.83
2017-04-16T13:44:33.865Z,5.53
2017-04-16T13:45:37.867Z,5.23
2017-04-16T13:46:41.552Z,5.20
2017-04-16T13:47:45.572Z,5.37
2017-04-16T13:48:49.629Z,5.35
2017-04-16T13:49:53.436Z,5.00
2017-04-16T13:50:57.275Z,4.13
2017-04-16T13:52:00.375Z,5.18
2017-04-16T13:53:04.769Z,4.35
2017-04-16T13:54:09.424Z,4.50
2017-04-16T13:55:14.489Z,3.75
2017-04-16T13:56:18.741Z,4.08
2017-04-16T13:57:22.444Z,3.87
2017-04-16T13:58:26.610Z,3.63
2017-04-16T13:59:30.355Z,4.45
2017-04-16T14:00:34.392Z,4.72
2017-04-16T14:01:38.168Z,2.50
2017-04-16T14:02:41.861Z,2.65
2017-04-16T14:03:46.097Z,2.82
2017-04-16T14:04:49.961Z,2.40
2017-04-16T14:05:54.017Z,1.57
2017-04-16T14:06:57.668Z,2.17
2017-04-16T14:08:01.401Z,1.73
2017-04-16T14:09:05.821Z,1.82